Time;durP1;ratioP1;P1;durP2;ratioP2;P2;SDS_P1;SDS_P2;PMS_P1;PMS_P2;Temp;Humidity;BMP_temperature;BMP_pressure;BME280_temperature;BME280_humidity;BME280_pressure;Samples;Min_cycle;Max_cycle;Signal;HPM_P1;HPM_P2
2022/05/26 00:03:38;;;;;;;5.45;2.08;;;16.50;86.20;;;;;;10540399;28;20078;-61
2022/05/26 00:08:40;;;;;;;3.92;2.05;;;16.50;86.30;;;;;;10540322;28;20028;-62
2022/05/26 00:13:41;;;;;;;3.97;2.00;;;16.50;86.40;;;;;;10539957;28;20066;-61
2022/05/26 00:18:43;;;;;;;3.05;1.73;;;16.50;86.40;;;;;;10540057;28;20055;-59
2022/05/26 00:23:44;;;;;;;4.53;2.05;;;16.50;86.50;;;;;;10539755;28;20043;-59
2022/05/26 00:28:44;;;;;;;4.30;2.20;;;16.50;86.70;;;;;;10539319;28;20028;-60
2022/05/26 00:33:45;;;;;;;5.25;2.70;;;16.50;86.70;;;;;;10539063;28;20540;-62
2022/05/26 00:38:46;;;;;;;5.03;2.70;;;16.50;86.80;;;;;;10539076;28;20079;-62
2022/05/26 00:43:47;;;;;;;4.57;2.63;;;16.50;86.90;;;;;;10538976;28;20028;-59
2022/05/26 00:48:53;;;;;;;4.18;2.30;;;16.40;87.00;;;;;;10538530;28;20488;-58
2022/05/26 00:53:58;;;;;;;6.95;2.65;;;16.40;87.10;;;;;;10538408;28;20054;-59
2022/05/26 00:59:27;;;;;;;5.28;2.40;;;16.40;87.20;;;;;;10520068;28;20085;-63
2022/05/26 01:04:35;;;;;;;8.63;3.38;;;16.40;87.40;;;;;;10526452;28;20381;-60
2022/05/26 01:09:35;;;;;;;4.53;2.67;;;16.40;87.30;;;;;;10537880;28;20028;-58
2022/05/26 01:14:52;;;;;;;7.03;2.92;;;16.40;87.40;;;;;;10537432;28;20052;-61
2022/05/26 01:20:27;;;;;;;5.25;2.72;;;16.40;87.70;;;;;;10537252;28;20044;-60
2022/05/26 01:25:52;;;;;;;5.40;3.13;;;16.40;87.90;;;;;;10537333;28;20044;-63
2022/05/26 01:31:17;;;;;;;5.50;2.63;;;16.40;87.70;;;;;;10537291;28;20496;-57
2022/05/26 01:36:41;;;;;;;5.63;3.10;;;16.40;87.80;;;;;;10536863;28;20052;-63
2022/05/26 01:42:02;;;;;;;6.95;2.88;;;16.40;88.10;;;;;;10536453;28;20119;-58
2022/05/26 01:47:43;;;;;;;6.32;3.30;;;16.40;87.90;;;;;;10536592;28;20070;-61
2022/05/26 01:53:12;;;;;;;6.03;2.95;;;16.40;88.30;;;;;;10528170;28;20038;-59
2022/05/26 01:58:34;;;;;;;6.65;2.75;;;16.30;88.40;;;;;;10526490;28;20048;-61
2022/05/26 02:03:37;;;;;;;7.70;2.85;;;16.40;88.40;;;;;;10536221;28;20032;-58
2022/05/26 02:08:43;;;;;;;6.07;2.92;;;16.30;88.20;;;;;;10536029;28;20248;-58
2022/05/26 02:13:57;;;;;;;7.80;3.40;;;16.30;88.40;;;;;;10537750;28;20488;-63
2022/05/26 02:19:16;;;;;;;5.57;2.40;;;16.30;88.50;;;;;;10544791;28;20048;-58
2022/05/26 02:24:23;;;;;;;4.53;2.60;;;16.30;88.70;;;;;;10544402;28;20412;-61
2022/05/26 02:34:47;;;;;;;5.72;2.80;;;16.30;88.60;;;;;;10543997;28;20036;-57
2022/05/26 02:39:48;;;;;;;7.30;2.75;;;16.30;88.90;;;;;;10543774;28;20501;-57
2022/05/26 02:44:49;;;;;;;6.78;2.67;;;16.30;88.80;;;;;;10543446;28;20185;-58
2022/05/26 02:50:21;;;;;;;6.65;2.80;;;16.30;88.80;;;;;;10543485;28;20036;-62
2022/05/26 02:56:00;;;;;;;6.57;2.60;;;16.30;89.30;;;;;;10543158;28;20090;-61
2022/05/26 03:01:04;;;;;;;5.55;2.55;;;16.30;89.40;;;;;;10542795;28;20052;-56
2022/05/26 03:06:25;;;;;;;5.50;2.67;;;16.30;89.10;;;;;;10542970;28;20501;-59
2022/05/26 03:11:27;;;;;;;5.45;2.65;;;16.30;89.40;;;;;;10542979;28;20036;-56
2022/05/26 03:16:27;;;;;;;9.60;2.60;;;16.30;89.30;;;;;;10542473;28;20028;-55
2022/05/26 03:21:28;;;;;;;6.57;2.70;;;16.30;89.50;;;;;;10542320;28;20048;-59
2022/05/26 03:26:29;;;;;;;7.60;2.53;;;16.30;89.50;;;;;;10541068;28;20031;-57
2022/05/26 03:31:31;;;;;;;7.47;2.47;;;16.30;89.50;;;;;;10542008;28;20035;-58
2022/05/26 03:41:51;;;;;;;10.30;3.17;;;16.30;89.60;;;;;;10541404;28;20078;-61
2022/05/26 03:46:52;;;;;;;6.65;2.75;;;16.30;89.70;;;;;;10541229;28;20028;-58
2022/05/26 03:51:53;;;;;;;7.13;3.42;;;16.30;89.80;;;;;;10541112;28;20032;-56
2022/05/26 03:56:53;;;;;;;9.02;3.03;;;16.30;89.90;;;;;;10540975;28;20528;-56
2022/05/26 04:01:54;;;;;;;5.20;2.58;;;16.30;89.90;;;;;;10540861;28;20036;-57
2022/05/26 04:06:55;;;;;;;4.57;2.13;;;16.30;90.00;;;;;;10540437;28;20044;-61
2022/05/26 04:11:55;;;;;;;4.68;2.17;;;16.30;90.00;;;;;;10540190;28;20131;-59
2022/05/26 04:16:58;;;;;;;5.63;1.92;;;16.30;90.30;;;;;;10539927;28;20075;-56
2022/05/26 04:22:15;;;;;;;6.07;2.10;;;16.30;90.00;;;;;;10539558;28;20071;-56
2022/05/26 04:27:18;;;;;;;9.10;2.20;;;16.30;90.00;;;;;;10539585;28;20082;-56
2022/05/26 04:32:21;;;;;;;9.00;2.08;;;16.30;90.00;;;;;;10538984;28;20480;-61
2022/05/26 04:37:23;;;;;;;4.97;1.92;;;16.30;90.00;;;;;;10538915;28;20032;-60
2022/05/26 04:42:25;;;;;;;4.90;2.00;;;16.30;90.00;;;;;;10538711;28;20390;-59
2022/05/26 04:47:26;;;;;;;7.30;2.35;;;16.30;90.00;;;;;;10538888;28;20032;-56
2022/05/26 04:52:27;;;;;;;3.22;1.58;;;16.30;90.00;;;;;;10538807;28;20552;-59
2022/05/26 04:57:27;;;;;;;5.80;1.60;;;16.30;90.00;;;;;;10538267;28;20511;-55
2022/05/26 05:02:29;;;;;;;3.47;1.55;;;16.30;90.00;;;;;;10538107;28;20123;-59
2022/05/26 05:07:30;;;;;;;5.88;2.13;;;16.30;90.00;;;;;;10538231;28;20429;-60
2022/05/26 05:12:31;;;;;;;4.60;1.52;;;16.30;89.90;;;;;;10537908;28;20067;-56
2022/05/26 05:17:32;;;;;;;4.75;1.50;;;16.30;89.90;;;;;;10537641;28;20036;-56
2022/05/26 05:22:46;;;;;;;4.63;1.52;;;16.30;89.90;;;;;;10537460;28;20040;-56
2022/05/26 05:27:58;;;;;;;2.97;1.45;;;16.30;89.90;;;;;;10537581;28;20020;-61
2022/05/26 05:33:11;;;;;;;4.13;1.55;;;16.40;90.10;;;;;;10537143;28;20047;-59
2022/05/26 05:38:13;;;;;;;4.05;1.33;;;16.40;89.80;;;;;;10537122;28;20039;-55
2022/05/26 05:43:14;;;;;;;3.47;1.40;;;16.40;89.70;;;;;;10536791;28;20040;-56
2022/05/26 05:48:14;;;;;;;3.28;1.40;;;16.40;89.70;;;;;;10536506;28;20162;-56
2022/05/26 05:53:15;;;;;;;3.58;1.52;;;16.40;89.70;;;;;;10536444;28;20508;-60
2022/05/26 05:58:16;;;;;;;3.58;1.30;;;16.40;89.70;;;;;;10536158;28;20042;-63
2022/05/26 06:03:17;;;;;;;2.55;1.20;;;16.40;89.60;;;;;;10536176;28;20036;-55
2022/05/26 06:08:18;;;;;;;2.42;1.10;;;16.40;89.50;;;;;;10536119;28;20036;-57
2022/05/26 06:13:19;;;;;;;3.20;1.00;;;16.50;89.50;;;;;;10536086;28;20451;-61
2022/05/26 06:18:20;;;;;;;2.45;1.20;;;16.50;89.40;;;;;;10535766;28;20048;-61
2022/05/26 06:23:20;;;;;;;4.10;1.23;;;16.50;89.30;;;;;;10535848;28;20086;-56
2022/05/26 06:38:59;;;;;;;1.45;1.00;;;16.60;89.10;;;;;;10534937;28;20060;-56
2022/05/26 06:44:02;;;;;;;6.38;1.77;;;16.60;88.90;;;;;;10534851;28;20082;-56
2022/05/26 06:49:03;;;;;;;4.45;1.27;;;16.60;88.90;;;;;;10534843;28;20032;-62
2022/05/26 06:54:05;;;;;;;1.33;0.75;;;16.60;88.80;;;;;;10534834;28;20032;-62
2022/05/26 06:59:06;;;;;;;3.60;1.05;;;16.60;88.60;;;;;;10534980;28;20040;-56
2022/05/26 07:04:06;;;;;;;3.40;1.08;;;16.70;88.60;;;;;;10542135;28;20524;-56
2022/05/26 07:09:07;;;;;;;5.65;1.38;;;16.70;88.50;;;;;;10542576;28;20115;-61
2022/05/26 07:14:08;;;;;;;2.58;0.90;;;16.70;88.40;;;;;;10542736;28;20429;-62
2022/05/26 07:19:08;;;;;;;3.42;0.90;;;16.70;88.30;;;;;;10542284;28;20400;-60
2022/05/26 07:24:10;;;;;;;1.80;0.68;;;16.70;88.20;;;;;;10542148;28;20101;-56
2022/05/26 07:29:11;;;;;;;2.05;0.90;;;16.80;88.20;;;;;;10542072;28;20468;-60
2022/05/26 07:34:12;;;;;;;3.08;1.08;;;16.80;88.10;;;;;;10537356;28;20132;-64
2022/05/26 07:44:36;;;;;;;1.25;0.70;;;16.90;87.90;;;;;;10541275;28;20452;-58
2022/05/26 07:49:42;;;;;;;0.90;0.70;;;16.90;87.80;;;;;;10541141;28;20031;-58
2022/05/26 07:54:43;;;;;;;2.30;0.73;;;16.90;87.70;;;;;;10540862;28;20094;-62
2022/05/26 07:59:44;;;;;;;3.72;0.73;;;16.90;87.70;;;;;;10540573;28;20046;-65
2022/05/26 08:04:45;;;;;;;2.50;0.77;;;16.90;87.60;;;;;;10540491;28;20123;-61
2022/05/26 08:09:46;;;;;;;2.15;0.80;;;16.90;87.70;;;;;;10540221;28;20059;-57
2022/05/26 08:14:47;;;;;;;2.28;0.73;;;17.00;87.70;;;;;;10539686;28;20072;-66
2022/05/26 08:19:48;;;;;;;2.97;0.60;;;17.00;87.60;;;;;;10539613;28;20063;-56
2022/05/26 08:24:53;;;;;;;1.52;0.68;;;17.10;87.60;;;;;;10539541;28;20081;-62
2022/05/26 08:29:56;;;;;;;2.95;0.70;;;17.10;87.50;;;;;;10538340;28;20067;-64
2022/05/26 08:34:59;;;;;;;1.48;0.60;;;17.10;87.30;;;;;;10539205;28;20472;-67
2022/05/26 08:40:00;;;;;;;1.95;0.60;;;17.10;87.20;;;;;;10539236;28;20040;-60
2022/05/26 08:45:07;;;;;;;1.50;0.40;;;17.20;87.20;;;;;;10538861;28;20400;-57
2022/05/26 08:50:14;;;;;;;2.25;0.68;;;17.20;86.90;;;;;;10538571;28;20115;-60
2022/05/26 08:55:29;;;;;;;1.83;0.63;;;17.30;86.80;;;;;;10538464;28;20191;-57
2022/05/26 09:00:29;;;;;;;2.90;0.77;;;17.30;86.60;;;;;;10538144;28;20405;-67
2022/05/26 09:05:38;;;;;;;1.65;0.50;;;17.30;86.50;;;;;;10537869;28;20043;-64
2022/05/26 09:16:15;;;;;;;2.30;0.88;;;17.40;86.20;;;;;;10537789;28;20055;-66
2022/05/26 09:21:16;;;;;;;1.35;0.52;;;17.50;86.00;;;;;;10537995;28;20071;-59
2022/05/26 09:26:22;;;;;;;1.90;0.73;;;17.60;86.00;;;;;;10536643;28;20138;-57
2022/05/26 09:31:32;;;;;;;2.08;0.50;;;17.60;85.90;;;;;;10537393;28;20036;-64
2022/05/26 09:36:38;;;;;;;1.00;0.40;;;17.60;85.80;;;;;;10536862;28;20104;-65
2022/05/26 09:41:49;;;;;;;1.73;0.50;;;17.60;85.70;;;;;;10537141;28;20080;-63
2022/05/26 09:46:53;;;;;;;1.70;1.13;;;17.60;85.70;;;;;;10536574;28;20035;-62
2022/05/26 09:52:17;;;;;;;1.65;0.60;;;17.60;85.80;;;;;;10536507;28;20044;-65
2022/05/26 09:57:21;;;;;;;0.70;0.50;;;17.60;85.70;;;;;;10536248;28;20030;-58
2022/05/26 10:02:27;;;;;;;2.42;0.80;;;17.50;85.90;;;;;;10535903;28;20051;-57
2022/05/26 10:07:46;;;;;;;1.52;0.68;;;17.50;85.90;;;;;;10536191;28;20028;-66
2022/05/26 10:13:11;;;;;;;3.63;0.80;;;17.60;85.80;;;;;;10535765;28;20028;-67
2022/05/26 10:18:47;;;;;;;0.90;0.60;;;17.70;85.60;;;;;;10536100;28;20064;-64
2022/05/26 10:24:13;;;;;;;1.23;0.70;;;17.80;85.60;;;;;;10532711;28;20085;-68
2022/05/26 10:29:20;;;;;;;1.85;1.33;;;17.80;85.40;;;;;;10535467;28;20036;-58
2022/05/26 10:34:55;;;;;;;4.35;0.93;;;17.90;85.30;;;;;;10536839;28;20127;-65
2022/05/26 10:40:08;;;;;;;2.00;0.80;;;18.00;85.80;;;;;;10533159;28;20044;-62
2022/05/26 10:45:16;;;;;;;2.78;0.80;;;18.10;85.80;;;;;;10543930;28;20103;-58
2022/05/26 10:50:44;;;;;;;2.40;1.00;;;18.10;85.40;;;;;;10543857;28;20040;-60
2022/05/26 10:55:58;;;;;;;4.28;1.20;;;18.30;84.60;;;;;;10543622;28;20032;-57
2022/05/26 11:01:05;;;;;;;4.38;1.13;;;18.50;84.30;;;;;;10542946;28;20215;-64
2022/05/26 11:06:32;;;;;;;3.80;1.20;;;18.50;84.30;;;;;;10542918;28;20479;-64
2022/05/26 11:11:51;;;;;;;3.15;1.15;;;18.60;84.30;;;;;;10542534;28;20043;-60
2022/05/26 11:22:15;;;;;;;3.13;1.48;;;18.60;84.20;;;;;;10542020;28;20087;-58
2022/05/26 11:27:26;;;;;;;1.65;1.00;;;18.60;84.10;;;;;;10542167;28;20033;-56
2022/05/26 11:38:01;;;;;;;1.95;1.00;;;18.80;84.40;;;;;;10541471;28;20044;-64
2022/05/26 11:43:07;;;;;;;1.48;1.00;;;18.80;83.60;;;;;;10541713;28;20044;-62
2022/05/26 11:48:31;;;;;;;3.25;0.93;;;18.90;83.50;;;;;;10540238;28;20123;-57
2022/05/26 11:53:32;;;;;;;1.90;0.90;;;19.00;83.10;;;;;;10537803;28;20403;-65
2022/05/26 11:58:42;;;;;;;3.13;0.95;;;19.00;83.20;;;;;;10540673;28;20052;-64
2022/05/26 12:03:54;;;;;;;2.45;0.70;;;19.10;82.90;;;;;;10540744;28;20032;-56
2022/05/26 12:09:02;;;;;;;1.00;0.60;;;19.20;82.70;;;;;;10540474;28;20044;-64
2022/05/26 12:14:05;;;;;;;1.83;0.98;;;19.30;82.60;;;;;;10540195;28;20024;-57
2022/05/26 12:19:09;;;;;;;3.60;0.88;;;19.30;82.50;;;;;;10540654;28;20413;-57
2022/05/26 12:24:31;;;;;;;2.55;0.90;;;19.40;82.30;;;;;;10540129;28;20430;-56
2022/05/26 12:29:48;;;;;;;2.63;0.80;;;19.40;82.00;;;;;;10540060;28;20619;-57
2022/05/26 12:35:23;;;;;;;2.80;0.80;;;19.50;82.10;;;;;;10539387;28;20047;-60
2022/05/26 12:40:52;;;;;;;1.48;0.60;;;19.60;81.80;;;;;;10538963;28;20040;-63
2022/05/26 12:46:31;;;;;;;3.17;0.80;;;19.60;81.70;;;;;;10538888;28;20481;-65
2022/05/26 12:51:37;;;;;;;3.78;0.80;;;19.60;81.50;;;;;;10538742;28;20059;-64
2022/05/26 12:56:57;;;;;;;2.90;1.10;;;19.60;81.80;;;;;;10538617;28;20036;-57
2022/05/26 13:01:58;;;;;;;2.05;0.60;;;19.70;81.50;;;;;;10537691;28;20166;-62
2022/05/26 13:07:04;;;;;;;2.85;0.75;;;19.80;81.50;;;;;;10538110;28;20248;-58
2022/05/26 13:12:06;;;;;;;1.67;0.80;;;19.80;81.30;;;;;;10538145;28;20113;-63
2022/05/26 13:17:10;;;;;;;3.17;1.42;;;19.90;81.30;;;;;;10537786;28;20484;-58
2022/05/26 13:22:14;;;;;;;1.92;0.90;;;20.00;81.20;;;;;;10537485;28;20040;-61
2022/05/26 13:27:15;;;;;;;3.50;0.80;;;20.00;81.10;;;;;;10537543;28;20039;-64
2022/05/26 13:37:44;;;;;;;3.17;0.80;;;20.00;81.30;;;;;;10536816;28;20046;-59
2022/05/26 13:42:50;;;;;;;2.97;0.88;;;20.00;81.60;;;;;;10536905;28;20433;-64
2022/05/26 13:48:11;;;;;;;1.33;0.70;;;20.00;81.80;;;;;;10536841;28;20027;-59
2022/05/26 13:53:17;;;;;;;3.42;0.90;;;20.00;82.00;;;;;;10536571;28;20032;-64
2022/05/26 13:58:20;;;;;;;1.40;0.70;;;20.00;82.00;;;;;;10536511;28;20036;-57
2022/05/26 14:03:29;;;;;;;1.88;1.00;;;20.00;82.10;;;;;;10536377;28;20047;-64
2022/05/26 14:08:30;;;;;;;2.45;0.88;;;20.00;82.10;;;;;;10535904;28;20032;-62
2022/05/26 14:13:34;;;;;;;3.42;1.30;;;20.00;82.00;;;;;;10536068;28;20097;-60
2022/05/26 14:18:36;;;;;;;1.88;1.00;;;20.00;82.00;;;;;;10535833;28;20542;-55
2022/05/26 14:23:50;;;;;;;4.45;1.40;;;20.00;82.20;;;;;;10535619;28;20039;-57
2022/05/26 14:28:51;;;;;;;2.83;0.70;;;20.00;82.30;;;;;;10535705;28;20489;-66
2022/05/26 14:34:01;;;;;;;5.75;0.88;;;19.90;82.40;;;;;;10535443;28;20046;-62
2022/05/26 14:39:03;;;;;;;2.38;0.73;;;19.90;82.60;;;;;;10535458;28;20044;-59
2022/05/26 14:44:07;;;;;;;2.42;0.60;;;19.90;82.80;;;;;;10535352;28;20032;-60
2022/05/26 14:49:08;;;;;;;5.82;0.93;;;19.80;82.80;;;;;;10535212;28;20044;-62
2022/05/26 14:59:30;;;;;;;1.65;0.80;;;19.80;83.10;;;;;;10535068;28;20055;-62
2022/05/26 15:04:31;;;;;;;1.95;0.80;;;19.80;83.20;;;;;;10534029;28;20055;-63
2022/05/26 15:09:32;;;;;;;2.88;1.20;;;19.80;83.30;;;;;;10535109;28;20548;-62
2022/05/26 15:14:34;;;;;;;4.88;1.10;;;19.80;83.40;;;;;;10535071;28;20408;-57
2022/05/26 15:19:42;;;;;;;3.22;0.98;;;19.80;83.90;;;;;;10534978;28;20138;-57
2022/05/26 15:24:44;;;;;;;;;;;19.70;83.60;;;;;;10541608;28;20067;-57
2022/05/26 15:29:45;;;;;;;6.40;1.52;;;19.60;83.60;;;;;;10541988;28;19904;-57
2022/05/26 15:34:45;;;;;;;2.72;1.15;;;19.60;83.90;;;;;;10539414;28;20040;-60
2022/05/26 15:39:46;;;;;;;4.32;1.38;;;19.60;83.90;;;;;;10541820;28;20106;-65
2022/05/26 15:44:47;;;;;;;5.50;1.15;;;19.50;84.00;;;;;;10541438;28;20037;-60
2022/05/26 15:49:50;;;;;;;5.57;1.50;;;19.40;83.90;;;;;;10540921;28;20077;-64
2022/05/26 15:54:50;;;;;;;4.43;1.27;;;19.20;83.10;;;;;;10540894;28;20032;-57
2022/05/26 15:59:51;;;;;;;6.30;1.20;;;18.90;83.20;;;;;;10540608;28;20377;-58
2022/05/26 16:04:52;;;;;;;7.70;1.73;;;18.80;83.80;;;;;;10540641;28;20039;-68
2022/05/26 16:09:52;;;;;;;4.68;1.40;;;18.80;83.30;;;;;;10540344;28;20185;-56
2022/05/26 16:14:53;;;;;;;5.38;1.20;;;18.90;83.30;;;;;;10540122;28;20575;-57
2022/05/26 16:19:54;;;;;;;5.00;1.95;;;18.90;83.10;;;;;;10539701;28;20070;-62
2022/05/26 16:24:55;;;;;;;3.50;1.55;;;18.90;83.00;;;;;;10539507;28;20082;-56
2022/05/26 16:29:56;;;;;;;6.32;2.38;;;19.00;83.00;;;;;;10539450;28;20032;-58
2022/05/26 16:40:17;;;;;;;2.08;1.17;;;19.00;83.10;;;;;;10539085;28;20051;-60
2022/05/26 16:45:18;;;;;;;4.60;1.60;;;19.00;83.20;;;;;;10538869;28;20143;-65
2022/05/26 16:50:22;;;;;;;4.38;1.42;;;19.00;83.20;;;;;;10539062;28;20055;-62
2022/05/26 16:55:23;;;;;;;3.35;1.15;;;19.00;83.30;;;;;;10538717;28;20385;-63
2022/05/26 17:00:24;;;;;;;3.45;1.42;;;19.10;83.50;;;;;;10538157;28;20101;-64
2022/05/26 17:05:24;;;;;;;4.20;1.67;;;19.00;83.50;;;;;;10538182;28;20039;-64
2022/05/26 17:10:29;;;;;;;4.05;1.40;;;19.00;83.60;;;;;;10537933;28;20032;-61
2022/05/26 17:20:58;;;;;;;4.30;1.35;;;18.90;83.70;;;;;;10537533;28;20060;-63
2022/05/26 17:26:01;;;;;;;4.28;1.48;;;18.90;83.80;;;;;;10537226;28;20048;-63
2022/05/26 17:31:01;;;;;;;3.35;1.52;;;18.90;83.90;;;;;;10537418;28;20484;-63
2022/05/26 17:36:02;;;;;;;3.83;1.33;;;18.90;84.00;;;;;;10536737;28;20097;-58
2022/05/26 17:41:04;;;;;;;3.53;1.10;;;18.90;84.00;;;;;;10536807;28;20101;-64
2022/05/26 17:46:07;;;;;;;5.55;1.30;;;18.80;84.00;;;;;;10536167;28;20081;-62
2022/05/26 17:51:08;;;;;;;2.08;1.10;;;18.80;84.20;;;;;;10536663;28;20081;-64
2022/05/26 17:56:09;;;;;;;5.32;1.42;;;18.80;84.20;;;;;;10536417;28;20065;-59
2022/05/26 18:01:10;;;;;;;2.83;1.50;;;18.70;84.30;;;;;;10536085;28;20116;-63
2022/05/26 18:06:11;;;;;;;3.58;1.48;;;18.70;84.30;;;;;;10536343;28;20028;-63
2022/05/26 18:11:12;;;;;;;3.13;1.40;;;18.70;84.40;;;;;;10536015;28;20470;-59
2022/05/26 18:16:17;;;;;;;3.63;1.48;;;18.70;84.50;;;;;;10536154;28;20178;-57
2022/05/26 18:21:36;;;;;;;2.78;1.27;;;18.70;84.50;;;;;;10535660;28;20048;-60
2022/05/26 18:26:37;;;;;;;3.58;1.30;;;18.60;84.60;;;;;;10535857;28;20099;-64
2022/05/26 18:31:48;;;;;;;3.92;1.40;;;18.60;85.30;;;;;;10536059;28;20036;-64
2022/05/26 18:36:52;;;;;;;3.83;1.65;;;18.60;84.70;;;;;;10535402;28;20044;-64
2022/05/26 18:41:53;;;;;;;4.18;1.50;;;18.60;84.80;;;;;;10535572;28;20048;-63
2022/05/26 18:46:55;;;;;;;4.80;1.77;;;18.60;84.90;;;;;;10535405;28;20036;-60
2022/05/26 18:51:56;;;;;;;4.70;1.63;;;18.60;85.00;;;;;;10535662;28;20032;-62
2022/05/26 18:56:56;;;;;;;3.30;1.50;;;18.50;85.00;;;;;;10538950;28;20028;-61
2022/05/26 19:01:57;;;;;;;3.50;1.30;;;18.50;85.00;;;;;;10543263;28;20047;-61
2022/05/26 19:06:58;;;;;;;2.83;1.48;;;18.50;85.20;;;;;;10543017;28;20396;-61
2022/05/26 19:11:59;;;;;;;2.25;1.35;;;18.50;85.90;;;;;;10542619;28;20041;-62
2022/05/26 19:17:03;;;;;;;2.55;1.38;;;18.40;85.40;;;;;;10542465;28;20040;-61
2022/05/26 19:22:04;;;;;;;6.05;1.55;;;18.40;85.60;;;;;;10524014;28;20370;-58
2022/05/26 19:27:09;;;;;;;2.17;1.45;;;18.40;85.70;;;;;;10542273;28;20032;-62
2022/05/26 19:32:11;;;;;;;4.47;1.50;;;18.40;85.90;;;;;;10542065;28;20119;-60
2022/05/26 19:37:12;;;;;;;4.82;1.60;;;18.30;86.00;;;;;;10541644;28;20055;-64
2022/05/26 19:42:22;;;;;;;4.00;1.23;;;18.30;86.10;;;;;;10541123;28;20044;-59
2022/05/26 19:47:24;;;;;;;3.08;1.15;;;18.30;86.30;;;;;;10540899;28;20032;-59
2022/05/26 19:52:25;;;;;;;5.07;1.60;;;18.30;86.90;;;;;;10540747;28;20040;-57
2022/05/26 19:57:26;;;;;;;3.50;1.45;;;18.30;86.40;;;;;;10540758;28;20032;-58
2022/05/26 20:02:27;;;;;;;6.03;1.85;;;18.20;86.50;;;;;;10540306;28;20515;-67
2022/05/26 20:07:28;;;;;;;4.07;1.73;;;18.30;86.70;;;;;;10539874;28;20123;-58
2022/05/26 20:12:29;;;;;;;5.70;1.50;;;18.20;86.80;;;;;;10539890;28;20047;-70
2022/05/26 20:17:30;;;;;;;2.22;1.40;;;18.20;86.90;;;;;;10540160;28;20043;-70
2022/05/26 20:22:31;;;;;;;2.88;1.30;;;18.20;86.90;;;;;;10539498;28;20119;-68
2022/05/26 20:27:34;;;;;;;4.40;1.67;;;18.20;87.00;;;;;;10539535;28;20040;-70
2022/05/26 20:32:36;;;;;;;3.97;1.80;;;18.20;87.10;;;;;;10539483;28;20040;-64
2022/05/26 20:37:37;;;;;;;4.95;1.80;;;18.20;87.30;;;;;;10538990;28;20439;-69
2022/05/26 20:42:38;;;;;;;3.33;1.55;;;18.10;87.30;;;;;;10538980;28;20085;-66
2022/05/26 20:47:42;;;;;;;2.55;1.70;;;18.10;87.50;;;;;;10538594;28;20083;-66
2022/05/26 20:52:43;;;;;;;2.95;1.50;;;18.10;88.20;;;;;;10538580;28;20055;-69
2022/05/26 20:57:44;;;;;;;3.53;1.83;;;18.10;87.70;;;;;;10538223;28;20035;-65
2022/05/26 21:02:45;;;;;;;4.63;1.60;;;18.00;87.70;;;;;;10538020;28;20408;-66
2022/05/26 21:07:46;;;;;;;2.92;1.75;;;18.10;87.80;;;;;;10537870;28;20109;-58
2022/05/26 21:12:47;;;;;;;3.17;1.35;;;18.00;87.90;;;;;;10537714;28;20046;-58
2022/05/26 21:17:48;;;;;;;5.10;1.73;;;18.00;88.00;;;;;;10538075;28;20043;-57
2022/05/26 21:22:50;;;;;;;5.03;1.60;;;18.00;88.20;;;;;;10536359;28;20062;-63
2022/05/26 21:27:50;;;;;;;3.92;1.73;;;18.00;88.30;;;;;;10537066;28;20032;-63
2022/05/26 21:32:51;;;;;;;3.80;1.60;;;18.00;88.40;;;;;;10536962;28;20044;-62
2022/05/26 21:37:52;;;;;;;4.25;1.33;;;17.90;88.40;;;;;;10536694;28;20111;-62
2022/05/26 21:42:52;;;;;;;4.28;1.80;;;17.90;88.60;;;;;;10536939;28;20036;-61
2022/05/26 21:47:53;;;;;;;5.43;2.00;;;17.90;88.60;;;;;;10537190;28;20042;-62
2022/05/26 21:52:54;;;;;;;5.78;1.92;;;17.90;88.70;;;;;;10536585;28;20035;-57
2022/05/26 21:57:55;;;;;;;5.80;1.50;;;17.90;88.80;;;;;;10536340;28;20115;-65
2022/05/26 22:02:56;;;;;;;4.00;1.48;;;17.90;88.90;;;;;;10536457;28;20546;-63
2022/05/26 22:13:18;;;;;;;7.03;3.00;;;17.80;89.00;;;;;;10535890;28;20036;-61
2022/05/26 22:18:19;;;;;;;4.10;1.58;;;17.80;89.10;;;;;;10535949;28;20039;-60
2022/05/26 22:23:20;;;;;;;3.20;1.60;;;17.80;89.10;;;;;;10535748;28;20040;-59
2022/05/26 22:28:21;;;;;;;4.55;1.65;;;17.80;89.20;;;;;;10535666;28;20492;-65
2022/05/26 22:33:21;;;;;;;4.88;1.70;;;17.80;89.20;;;;;;10542037;28;20052;-64
2022/05/26 22:38:24;;;;;;;3.67;1.80;;;17.80;89.40;;;;;;10544038;28;20048;-65
2022/05/26 22:43:25;;;;;;;3.83;1.88;;;17.70;89.40;;;;;;10544077;28;20051;-65
2022/05/26 22:48:25;;;;;;;5.32;1.85;;;17.70;89.60;;;;;;10543742;28;20028;-63
2022/05/26 22:53:26;;;;;;;4.72;1.60;;;17.70;89.70;;;;;;10525420;28;20042;-57
2022/05/26 22:58:35;;;;;;;2.35;1.38;;;17.70;89.80;;;;;;10525456;28;20112;-64
2022/05/26 23:03:36;;;;;;;6.10;1.55;;;17.70;90.00;;;;;;10543005;28;20062;-65
2022/05/26 23:08:37;;;;;;;6.72;1.70;;;17.60;90.00;;;;;;10543247;28;20035;-64
2022/05/26 23:13:38;;;;;;;5.30;1.50;;;17.60;90.00;;;;;;10542733;28;20028;-67
2022/05/26 23:18:39;;;;;;;2.67;1.35;;;17.60;90.10;;;;;;10542718;28;20032;-65
2022/05/26 23:23:39;;;;;;;5.65;1.70;;;17.50;90.20;;;;;;10542294;28;20396;-63
2022/05/26 23:28:41;;;;;;;4.00;1.35;;;17.50;90.20;;;;;;10542097;28;20492;-62
2022/05/26 23:33:41;;;;;;;4.90;1.23;;;17.50;90.30;;;;;;10541894;28;20051;-66
2022/05/26 23:38:42;;;;;;;4.18;1.30;;;17.50;90.30;;;;;;10541589;28;20028;-65
2022/05/26 23:43:46;;;;;;;5.38;1.40;;;17.40;90.30;;;;;;10540877;28;20453;-61
2022/05/26 23:48:47;;;;;;;2.22;1.00;;;17.40;90.30;;;;;;10541609;28;20043;-65
2022/05/26 23:53:51;;;;;;;4.32;1.00;;;17.40;90.40;;;;;;10541230;28;20046;-65
2022/05/26 23:58:54;;;;;;;2.53;1.05;;;17.40;90.40;;;;;;10540788;28;20127;-61
